createdAt,value
2022-11-08T00:02:26.561Z,11.50
2022-11-08T00:04:53.534Z,10.30
2022-11-08T00:07:38.802Z,10.20
2022-11-08T00:10:25.654Z,10.00
2022-11-08T00:13:10.822Z,10.27
2022-11-08T00:15:38.912Z,12.15
2022-11-08T00:18:07.310Z,10.32
2022-11-08T00:20:34.492Z,10.07
2022-11-08T00:23:01.455Z,9.65
2022-11-08T00:25:28.341Z,8.23
2022-11-08T00:27:55.059Z,8.57
2022-11-08T00:30:21.858Z,7.70
2022-11-08T00:32:48.679Z,8.30
2022-11-08T00:35:15.674Z,7.55
2022-11-08T00:37:42.366Z,7.70
2022-11-08T00:40:10.219Z,7.93
2022-11-08T00:42:36.907Z,7.68
2022-11-08T00:45:03.859Z,7.70
2022-11-08T00:47:30.596Z,7.95
2022-11-08T00:49:57.377Z,7.70
2022-11-08T00:52:24.156Z,6.80
2022-11-08T00:54:50.966Z,7.55
2022-11-08T00:57:17.700Z,8.27
2022-11-08T00:59:44.550Z,7.32
2022-11-08T01:02:11.348Z,8.43
2022-11-08T01:04:38.071Z,8.07
2022-11-08T01:07:04.846Z,7.25
2022-11-08T01:09:31.552Z,6.53
2022-11-08T01:11:58.261Z,7.05
2022-11-08T01:14:24.954Z,7.10
2022-11-08T01:16:52.343Z,6.90
2022-11-08T01:19:19.071Z,6.47
2022-11-08T01:21:45.824Z,6.23
2022-11-08T01:24:12.542Z,5.70
2022-11-08T01:26:39.305Z,6.40
2022-11-08T01:29:06.006Z,6.55
2022-11-08T01:31:33.196Z,6.25
2022-11-08T01:34:00.576Z,6.90
2022-11-08T01:36:28.366Z,6.88
2022-11-08T01:38:56.467Z,6.32
2022-11-08T01:41:25.213Z,6.18
2022-11-08T01:43:54.194Z,6.57
2022-11-08T01:46:40.302Z,6.30
2022-11-08T01:49:09.964Z,7.90
2022-11-08T01:51:42.623Z,6.30
2022-11-08T01:54:13.444Z,6.47
2022-11-08T01:56:41.178Z,5.50
2022-11-08T01:59:10.391Z,6.30
2022-11-08T02:01:37.324Z,5.95
2022-11-08T02:04:04.802Z,5.70
2022-11-08T02:06:35.362Z,5.00
2022-11-08T02:09:04.974Z,4.78
2022-11-08T02:11:33.510Z,4.20
2022-11-08T02:14:01.067Z,6.15
2022-11-08T02:16:27.819Z,5.32
2022-11-08T02:18:54.636Z,5.45
2022-11-08T02:21:39.999Z,6.68
2022-11-08T02:24:13.975Z,6.07
2022-11-08T02:26:41.374Z,5.90
2022-11-08T02:29:28.217Z,6.93
2022-11-08T02:31:55.674Z,6.13
2022-11-08T02:34:30.548Z,6.20
2022-11-08T02:36:57.787Z,6.77
2022-11-08T02:39:24.657Z,7.20
2022-11-08T02:41:51.809Z,7.60
2022-11-08T02:44:18.599Z,7.10
2022-11-08T02:46:45.363Z,7.03
2022-11-08T02:49:12.112Z,6.67
2022-11-08T02:51:39.075Z,9.68
2022-11-08T02:54:05.958Z,11.75
2022-11-08T02:56:32.772Z,10.05
2022-11-08T02:58:59.545Z,8.52
2022-11-08T03:01:26.385Z,8.83
2022-11-08T03:03:53.417Z,8.07
2022-11-08T03:06:20.258Z,7.60
2022-11-08T03:08:47.045Z,14.82
2022-11-08T03:11:13.758Z,8.95
2022-11-08T03:13:40.635Z,12.40
2022-11-08T03:16:07.434Z,13.60
2022-11-08T03:18:34.328Z,13.50
2022-11-08T03:21:04.139Z,9.70
2022-11-08T03:23:32.113Z,6.65
2022-11-08T03:26:03.557Z,8.13
2022-11-08T03:28:30.887Z,7.93
2022-11-08T03:30:58.247Z,9.02
2022-11-08T03:33:25.323Z,7.40
2022-11-08T03:35:53.471Z,7.82
2022-11-08T03:38:20.604Z,10.10
2022-11-08T03:40:47.822Z,13.20
2022-11-08T03:43:14.869Z,11.52
2022-11-08T03:45:41.651Z,8.18
2022-11-08T03:48:08.402Z,8.65
2022-11-08T03:50:35.148Z,7.77
2022-11-08T03:53:02.048Z,6.13
2022-11-08T03:55:29.062Z,6.65
2022-11-08T03:57:56.515Z,7.25
2022-11-08T04:00:26.708Z,6.85
2022-11-08T04:02:55.340Z,4.73
2022-11-08T04:05:22.400Z,6.38
2022-11-08T04:07:49.129Z,7.10
2022-11-08T04:10:17.855Z,5.70
2022-11-08T04:13:03.256Z,14.77
2022-11-08T04:15:31.391Z,9.17
2022-11-08T04:18:17.519Z,8.10
2022-11-08T04:21:05.390Z,7.05
2022-11-08T04:23:34.037Z,7.07
2022-11-08T04:26:04.120Z,6.25
2022-11-08T04:28:32.773Z,5.43
2022-11-08T04:31:04.167Z,6.40
2022-11-08T04:33:31.181Z,5.57
2022-11-08T04:36:03.055Z,5.72
2022-11-08T04:38:30.955Z,5.70
2022-11-08T04:41:11.707Z,5.83
2022-11-08T04:43:38.605Z,6.20
2022-11-08T04:46:12.602Z,6.30
2022-11-08T04:48:40.193Z,6.30
2022-11-08T04:51:27.620Z,7.05
2022-11-08T04:53:57.469Z,6.17
2022-11-08T04:56:25.496Z,6.82
2022-11-08T04:58:54.548Z,7.43
2022-11-08T05:01:27.270Z,9.35
2022-11-08T05:03:54.682Z,7.95
2022-11-08T05:06:30.145Z,7.27
2022-11-08T05:08:58.511Z,6.78
2022-11-08T05:11:26.992Z,6.85
2022-11-08T05:13:54.138Z,6.40
2022-11-08T05:16:27.026Z,6.80
2022-11-08T05:18:54.395Z,6.20
2022-11-08T05:21:41.175Z,6.20
2022-11-08T05:24:10.843Z,6.57
2022-11-08T05:26:39.862Z,6.20
2022-11-08T05:29:06.582Z,6.28
2022-11-08T05:31:33.501Z,6.00
2022-11-08T05:34:00.885Z,6.15
2022-11-08T05:36:28.894Z,5.28
2022-11-08T05:38:56.341Z,5.38
2022-11-08T05:41:24.613Z,7.10
2022-11-08T05:43:53.894Z,6.43
2022-11-08T05:46:22.429Z,5.57
2022-11-08T05:48:50.175Z,23.10
2022-11-08T05:51:18.003Z,39.47
2022-11-08T05:53:46.881Z,13.27
2022-11-08T05:56:13.638Z,7.10
2022-11-08T05:58:40.372Z,7.15
2022-11-08T06:01:12.832Z,6.65
2022-11-08T06:03:40.180Z,6.07
2022-11-08T06:06:10.405Z,6.65
2022-11-08T06:08:38.217Z,7.43
2022-11-08T06:11:07.570Z,7.28
2022-11-08T06:13:35.299Z,7.90
2022-11-08T06:16:04.478Z,7.22
2022-11-08T06:18:32.227Z,8.27
2022-11-08T06:21:00.663Z,7.67
2022-11-08T06:23:28.351Z,7.97
2022-11-08T06:25:55.227Z,7.18
2022-11-08T06:28:22.126Z,8.75
2022-11-08T06:30:49.032Z,6.90
2022-11-08T06:33:16.675Z,6.57
2022-11-08T06:35:43.892Z,6.05
2022-11-08T06:38:11.252Z,5.45
2022-11-08T06:40:38.959Z,6.05
2022-11-08T06:43:06.178Z,5.97
2022-11-08T06:45:33.237Z,5.37
2022-11-08T06:48:01.762Z,5.10
2022-11-08T06:50:30.410Z,5.95
2022-11-08T06:52:58.623Z,6.45
2022-11-08T06:55:25.636Z,10.90
2022-11-08T06:57:52.632Z,8.83
2022-11-08T07:00:20.227Z,5.40
2022-11-08T07:02:53.016Z,6.50
2022-11-08T07:05:20.467Z,6.22
2022-11-08T07:07:52.508Z,6.70
2022-11-08T07:10:23.801Z,6.73
2022-11-08T07:12:59.010Z,7.07
2022-11-08T07:15:25.787Z,7.15
2022-11-08T07:17:52.586Z,7.13
2022-11-08T07:20:19.667Z,7.15
2022-11-08T07:22:46.525Z,6.73
2022-11-08T07:25:13.334Z,6.65
2022-11-08T07:27:40.028Z,6.35
2022-11-08T07:30:07.194Z,6.72
2022-11-08T07:32:33.898Z,7.07
2022-11-08T07:35:00.790Z,7.47
2022-11-08T07:37:27.497Z,6.45
2022-11-08T07:39:54.261Z,6.05
2022-11-08T07:42:20.955Z,5.40
2022-11-08T07:45:00.594Z,5.95
2022-11-08T07:47:27.373Z,6.33
2022-11-08T07:49:54.105Z,6.70
2022-11-08T07:52:20.870Z,6.70
2022-11-08T07:54:47.848Z,6.68
2022-11-08T07:57:14.836Z,7.20
2022-11-08T07:59:41.531Z,7.20
2022-11-08T08:02:12.640Z,6.20
2022-11-08T08:04:39.525Z,6.63
2022-11-08T08:07:07.026Z,6.85
2022-11-08T08:09:37.187Z,6.35
2022-11-08T08:12:04.189Z,6.87
2022-11-08T08:14:30.894Z,6.40
2022-11-08T08:16:57.866Z,6.93
2022-11-08T08:19:24.612Z,6.72
2022-11-08T08:21:51.372Z,6.75
2022-11-08T08:24:18.099Z,6.50
2022-11-08T08:26:44.863Z,6.55
2022-11-08T08:29:11.554Z,6.38
2022-11-08T08:31:38.338Z,5.50
2022-11-08T08:34:05.039Z,6.28
2022-11-08T08:36:31.819Z,5.73
2022-11-08T08:38:58.546Z,5.45
2022-11-08T08:41:25.363Z,5.97
2022-11-08T08:43:52.080Z,5.85
2022-11-08T08:46:20.364Z,6.05
2022-11-08T08:48:47.206Z,6.20
2022-11-08T08:51:14.012Z,6.30
2022-11-08T08:53:40.758Z,7.63
2022-11-08T08:56:08.570Z,8.18
2022-11-08T08:58:35.668Z,9.77
2022-11-08T09:03:51.246Z,7.72
2022-11-08T09:06:18.392Z,7.90
2022-11-08T09:08:45.118Z,7.28
2022-11-08T09:11:11.844Z,9.35
2022-11-08T09:13:38.637Z,9.70
2022-11-08T09:16:08.024Z,7.95
2022-11-08T09:18:34.911Z,6.88
2022-11-08T09:21:04.403Z,6.13
2022-11-08T09:23:31.215Z,6.63
2022-11-08T09:26:03.572Z,6.80
2022-11-08T09:28:32.257Z,6.47
2022-11-08T09:31:12.359Z,6.43
2022-11-08T09:33:40.381Z,6.10
2022-11-08T09:36:08.923Z,6.90
2022-11-08T09:38:35.717Z,5.90
2022-11-08T09:41:37.680Z,5.95
2022-11-08T09:44:26.195Z,5.80
2022-11-08T09:46:56.944Z,5.90
2022-11-08T09:49:36.093Z,5.88
2022-11-08T09:52:04.293Z,5.53
2022-11-08T09:54:50.598Z,5.80
2022-11-08T09:57:30.319Z,5.82
2022-11-08T10:00:06.942Z,6.30
2022-11-08T10:02:36.555Z,6.28
2022-11-08T10:05:09.441Z,7.33
2022-11-08T10:07:41.534Z,6.50
2022-11-08T10:10:30.548Z,7.05
2022-11-08T10:13:27.334Z,6.68
2022-11-08T10:15:56.733Z,6.90
2022-11-08T10:18:35.962Z,6.60
2022-11-08T10:21:38.164Z,6.80
2022-11-08T10:24:37.504Z,7.10
2022-11-08T10:27:14.523Z,6.30
2022-11-08T10:29:44.597Z,6.85
2022-11-08T10:32:19.677Z,6.33
2022-11-08T10:35:04.220Z,7.15
2022-11-08T10:37:32.814Z,6.78
2022-11-08T10:40:37.597Z,7.18
2022-11-08T10:43:19.489Z,6.18
2022-11-08T10:45:46.342Z,6.37
2022-11-08T10:48:13.222Z,6.72
2022-11-08T10:50:50.922Z,6.40
2022-11-08T10:53:24.212Z,5.95
2022-11-08T10:55:53.330Z,6.60
2022-11-08T10:58:41.686Z,5.90
2022-11-08T11:01:25.570Z,5.78
2022-11-08T11:03:53.252Z,5.82
2022-11-08T11:06:30.791Z,5.03
2022-11-08T11:09:03.945Z,5.45
2022-11-08T11:11:30.624Z,5.40
2022-11-08T11:14:22.107Z,5.30
2022-11-08T11:17:18.078Z,5.72
2022-11-08T11:19:53.751Z,5.32
2022-11-08T11:22:38.523Z,5.30
2022-11-08T11:25:13.696Z,5.30
2022-11-08T11:27:42.702Z,6.03
2022-11-08T11:30:12.516Z,6.68
2022-11-08T11:32:40.032Z,7.97
2022-11-08T11:35:13.920Z,7.90
2022-11-08T11:37:45.961Z,8.10
2022-11-08T11:40:21.702Z,7.55
2022-11-08T11:42:59.855Z,7.50
2022-11-08T11:45:50.409Z,6.85
2022-11-08T11:48:31.613Z,7.30
2022-11-08T11:50:59.176Z,7.20
2022-11-08T11:53:39.798Z,6.43
2022-11-08T11:56:41.407Z,6.93
2022-11-08T11:59:42.284Z,6.13
2022-11-08T12:02:37.165Z,6.70
2022-11-08T12:05:32.820Z,6.67
2022-11-08T12:08:14.699Z,6.93
2022-11-08T12:10:54.059Z,7.45
2022-11-08T12:13:41.074Z,7.57
2022-11-08T12:16:21.815Z,8.00
2022-11-08T12:19:24.402Z,8.23
2022-11-08T12:22:13.974Z,8.20
2022-11-08T12:24:55.775Z,8.70
2022-11-08T12:27:28.763Z,8.50
2022-11-08T12:30:12.816Z,9.27
2022-11-08T12:33:10.190Z,8.77
2022-11-08T12:35:55.260Z,7.95
2022-11-08T12:38:21.990Z,9.52
2022-11-08T12:40:58.191Z,9.13
2022-11-08T12:43:57.917Z,10.35
2022-11-08T12:46:24.813Z,10.00
2022-11-08T12:49:16.427Z,10.05
2022-11-08T12:51:43.156Z,11.73
2022-11-08T12:54:39.984Z,9.35
2022-11-08T12:57:11.538Z,9.50
2022-11-08T12:59:47.307Z,7.67
2022-11-08T13:02:22.989Z,11.88
2022-11-08T13:05:13.175Z,12.15
2022-11-08T13:07:49.035Z,11.02
2022-11-08T13:10:52.911Z,12.13
2022-11-08T13:13:37.045Z,11.00
2022-11-08T13:16:08.899Z,11.50
2022-11-08T13:18:47.587Z,11.65
2022-11-08T13:21:26.292Z,11.68
2022-11-08T13:23:54.580Z,13.43
2022-11-08T13:26:26.264Z,9.03
2022-11-08T13:28:53.579Z,11.77
2022-11-08T13:31:31.072Z,8.93
2022-11-08T13:34:03.499Z,12.05
2022-11-08T13:36:51.029Z,11.30
2022-11-08T13:39:49.352Z,10.87
2022-11-08T13:42:16.059Z,12.05
2022-11-08T13:44:54.615Z,11.73
2022-11-08T13:47:33.604Z,10.48
2022-11-08T13:50:31.423Z,11.18
2022-11-08T13:53:09.823Z,10.97
2022-11-08T13:55:42.535Z,7.40
2022-11-08T13:58:33.816Z,10.60
2022-11-08T14:01:03.527Z,10.07
2022-11-08T14:03:33.525Z,9.15
2022-11-08T14:06:06.449Z,10.60
2022-11-08T14:08:54.853Z,12.00
2022-11-08T14:11:43.068Z,11.63
2022-11-08T14:14:20.641Z,9.65
2022-11-08T14:17:24.722Z,7.28
2022-11-08T14:19:52.490Z,12.13
2022-11-08T14:22:27.980Z,11.98
2022-11-08T14:25:06.316Z,12.48
2022-11-08T14:27:36.436Z,12.32
2022-11-08T14:30:06.191Z,13.50
2022-11-08T14:32:32.921Z,12.47
2022-11-08T14:35:16.550Z,13.20
2022-11-08T14:37:44.057Z,14.13
2022-11-08T14:40:38.128Z,13.50
2022-11-08T14:43:04.842Z,10.20
2022-11-08T14:45:31.545Z,13.93
2022-11-08T14:48:04.939Z,12.60
2022-11-08T14:50:35.107Z,11.85
2022-11-08T14:53:26.897Z,10.40
2022-11-08T14:56:12.230Z,12.40
2022-11-08T14:58:38.996Z,12.37
2022-11-08T15:01:08.684Z,12.57
2022-11-08T15:03:35.827Z,12.77
2022-11-08T15:06:10.983Z,13.00
2022-11-08T15:08:50.458Z,13.18
2022-11-08T15:11:28.618Z,12.60
2022-11-08T15:14:02.982Z,13.18
2022-11-08T15:16:47.519Z,13.90
2022-11-08T15:19:42.641Z,12.77
2022-11-08T15:22:29.353Z,11.68
2022-11-08T15:25:14.102Z,12.43
2022-11-08T15:27:55.316Z,13.27
2022-11-08T15:30:26.260Z,10.90
2022-11-08T15:32:53.019Z,13.20
2022-11-08T15:35:36.735Z,14.82
2022-11-08T15:38:39.390Z,11.53
2022-11-08T15:41:29.924Z,12.15
2022-11-08T15:44:14.418Z,13.10
2022-11-08T15:46:41.300Z,15.10
2022-11-08T15:49:25.851Z,12.98
2022-11-08T15:51:54.791Z,13.20
2022-11-08T15:54:23.082Z,11.27
2022-11-08T15:56:53.162Z,14.45
2022-11-08T15:59:24.427Z,14.60
2022-11-08T16:01:57.718Z,12.30
2022-11-08T16:04:25.143Z,14.47
2022-11-08T16:06:52.007Z,14.00
2022-11-08T16:09:18.908Z,14.18
2022-11-08T16:11:46.440Z,8.80
2022-11-08T16:14:17.324Z,14.20
2022-11-08T16:16:44.186Z,13.70
2022-11-08T16:19:31.195Z,14.15
2022-11-08T16:21:57.895Z,13.90
2022-11-08T16:24:24.658Z,14.82
2022-11-08T16:26:51.425Z,14.32
2022-11-08T16:29:24.048Z,15.83
2022-11-08T16:31:51.516Z,14.18
2022-11-08T16:34:19.057Z,15.65
2022-11-08T16:36:47.812Z,14.40
2022-11-08T16:39:19.418Z,14.77
2022-11-08T16:41:46.181Z,12.70
2022-11-08T16:44:13.170Z,14.45
2022-11-08T16:46:40.335Z,15.23
2022-11-08T16:49:13.421Z,13.65
2022-11-08T16:51:40.179Z,16.50
2022-11-08T16:54:16.843Z,13.07
2022-11-08T16:56:43.617Z,14.48
2022-11-08T16:59:10.427Z,13.98
2022-11-08T17:01:38.116Z,15.60
2022-11-08T17:04:04.924Z,14.20
2022-11-08T17:06:32.311Z,13.73
2022-11-08T17:08:59.407Z,13.88
2022-11-08T17:11:29.351Z,13.60
2022-11-08T17:13:57.369Z,13.45
2022-11-08T17:16:24.825Z,14.30
2022-11-08T17:18:53.370Z,12.97
2022-11-08T17:24:09.525Z,14.02
2022-11-08T17:26:36.816Z,13.63
2022-11-08T17:29:03.761Z,14.18
2022-11-08T17:31:30.450Z,15.57
2022-11-08T17:33:57.770Z,13.38
2022-11-08T17:36:25.457Z,13.05
2022-11-08T17:38:53.726Z,13.02
2022-11-08T17:41:21.216Z,13.52
2022-11-08T17:43:48.582Z,14.17
2022-11-08T17:46:15.949Z,13.27
2022-11-08T17:48:43.451Z,13.00
2022-11-08T17:51:12.095Z,12.73
2022-11-08T17:53:39.769Z,13.45
2022-11-08T17:56:06.991Z,13.37
2022-11-08T17:58:34.881Z,14.48
2022-11-08T18:01:05.802Z,11.13
2022-11-08T18:03:33.405Z,11.48
2022-11-08T18:06:11.380Z,13.77
2022-11-08T18:08:38.290Z,12.53
2022-11-08T18:11:05.504Z,11.82
2022-11-08T18:13:32.621Z,14.23
2022-11-08T18:16:32.001Z,13.18
2022-11-08T18:18:59.299Z,12.32
2022-11-08T18:21:26.501Z,12.03
2022-11-08T18:23:53.424Z,12.20
2022-11-08T18:26:20.234Z,13.18
2022-11-08T18:28:47.030Z,11.80
2022-11-08T18:31:16.623Z,14.98
2022-11-08T18:33:43.977Z,10.93
2022-11-08T18:36:16.818Z,13.35
2022-11-08T18:38:45.716Z,15.48
2022-11-08T18:41:15.184Z,13.15
2022-11-08T18:43:42.242Z,12.65
2022-11-08T18:46:13.156Z,11.53
2022-11-08T18:48:40.373Z,11.38
2022-11-08T18:51:10.566Z,12.20
2022-11-08T18:53:38.566Z,11.98
2022-11-08T18:56:06.584Z,12.75
2022-11-08T18:58:34.534Z,12.73
2022-11-08T19:01:01.896Z,12.38
2022-11-08T19:03:29.269Z,11.27
2022-11-08T19:05:56.296Z,12.95
2022-11-08T19:08:25.484Z,13.93
2022-11-08T19:10:54.667Z,13.30
2022-11-08T19:13:23.366Z,12.20
2022-11-08T19:15:57.741Z,14.23
2022-11-08T19:18:25.328Z,12.77
2022-11-08T19:21:00.119Z,13.88
2022-11-08T19:23:26.988Z,12.80
2022-11-08T19:25:58.162Z,14.00
2022-11-08T19:28:29.126Z,14.13
2022-11-08T19:30:59.396Z,13.23
2022-11-08T19:33:28.275Z,13.48
2022-11-08T19:35:55.411Z,13.83
2022-11-08T19:38:22.582Z,13.63
2022-11-08T19:40:49.621Z,14.07
2022-11-08T19:43:17.089Z,13.20
2022-11-08T19:45:50.563Z,13.68
2022-11-08T19:48:17.970Z,13.70
2022-11-08T19:50:44.996Z,13.90
2022-11-08T19:53:11.846Z,14.07
2022-11-08T19:55:38.588Z,12.45
2022-11-08T19:58:05.414Z,13.85
2022-11-08T20:00:32.191Z,14.93
2022-11-08T20:02:58.990Z,12.40
2022-11-08T20:05:25.811Z,14.15
2022-11-08T20:07:52.568Z,13.30
2022-11-08T20:10:19.689Z,14.93
2022-11-08T20:12:46.502Z,13.20
2022-11-08T20:15:13.228Z,12.60
2022-11-08T20:17:40.036Z,13.07
2022-11-08T20:20:07.291Z,13.13
2022-11-08T20:22:34.033Z,15.15
2022-11-08T20:25:00.853Z,14.73
2022-11-08T20:27:28.118Z,13.02
2022-11-08T20:29:54.906Z,15.07
2022-11-08T20:32:21.714Z,13.57
2022-11-08T20:34:50.731Z,12.85
2022-11-08T20:37:17.672Z,12.67
2022-11-08T20:39:44.592Z,13.85
2022-11-08T20:42:12.176Z,14.27
2022-11-08T20:44:38.880Z,12.52
2022-11-08T20:47:06.652Z,12.07
2022-11-08T20:49:33.714Z,14.27
2022-11-08T20:52:00.450Z,12.45
2022-11-08T20:54:27.184Z,12.35
2022-11-08T20:56:53.936Z,12.82
2022-11-08T20:59:20.682Z,11.02
2022-11-08T21:01:47.448Z,12.10
2022-11-08T21:04:14.404Z,11.43
2022-11-08T21:06:41.265Z,11.98
2022-11-08T21:09:34.283Z,12.32
2022-11-08T21:11:56.434Z,13.07
2022-11-08T21:14:24.746Z,13.00
2022-11-08T21:17:20.189Z,14.10
2022-11-08T21:19:39.165Z,12.20
2022-11-08T21:22:18.176Z,11.90
2022-11-08T21:24:47.665Z,13.45
2022-11-08T21:27:15.588Z,11.73
2022-11-08T21:29:42.595Z,11.77
2022-11-08T21:32:09.399Z,11.80
2022-11-08T21:34:36.474Z,11.25
2022-11-08T21:37:03.295Z,11.55
2022-11-08T21:39:30.056Z,11.93
2022-11-08T21:41:56.789Z,11.57
2022-11-08T21:44:23.512Z,12.20
2022-11-08T21:46:50.296Z,11.57
2022-11-08T21:49:17.001Z,11.88
2022-11-08T21:51:43.735Z,11.57
2022-11-08T21:54:10.402Z,11.77
2022-11-08T21:56:37.179Z,10.43
2022-11-08T21:59:03.980Z,10.85
2022-11-08T22:01:31.305Z,10.13
2022-11-08T22:04:00.637Z,10.13
2022-11-08T22:06:29.410Z,11.55
2022-11-08T22:08:56.342Z,11.20
2022-11-08T22:11:23.446Z,11.00
2022-11-08T22:13:50.507Z,11.82
2022-11-08T22:16:17.302Z,10.53
2022-11-08T22:19:05.606Z,10.52
2022-11-08T22:21:41.051Z,10.13
2022-11-08T22:24:14.806Z,9.73
2022-11-08T22:26:41.954Z,11.00
2022-11-08T22:29:09.245Z,10.30
2022-11-08T22:31:36.348Z,10.45
2022-11-08T22:34:03.976Z,10.02
2022-11-08T22:36:30.975Z,9.82
2022-11-08T22:38:57.876Z,10.13
2022-11-08T22:41:25.183Z,9.17
2022-11-08T22:43:52.551Z,9.35
2022-11-08T22:46:19.675Z,8.98
2022-11-08T22:48:46.710Z,9.55
2022-11-08T22:51:13.669Z,9.10
2022-11-08T22:53:41.336Z,7.67
2022-11-08T22:56:11.480Z,7.95
2022-11-08T22:58:39.197Z,8.80
2022-11-08T23:01:08.266Z,8.82
2022-11-08T23:03:35.119Z,9.02
2022-11-08T23:06:01.868Z,8.30
2022-11-08T23:08:29.439Z,8.55
2022-11-08T23:11:17.642Z,8.60
2022-11-08T23:14:02.885Z,8.60
2022-11-08T23:16:33.641Z,9.07
2022-11-08T23:19:20.655Z,8.20
2022-11-08T23:22:06.606Z,8.65
2022-11-08T23:24:33.431Z,8.32
2022-11-08T23:27:19.885Z,8.48
2022-11-08T23:30:06.213Z,9.60
2022-11-08T23:32:33.800Z,8.27
2022-11-08T23:35:00.556Z,10.07
2022-11-08T23:37:28.040Z,10.60
2022-11-08T23:40:13.266Z,10.25
2022-11-08T23:42:58.485Z,9.80
2022-11-08T23:45:25.180Z,9.07
2022-11-08T23:47:53.559Z,8.40
2022-11-08T23:50:20.874Z,8.77
2022-11-08T23:52:47.664Z,8.60
2022-11-08T23:55:14.494Z,10.00
2022-11-08T23:57:41.182Z,9.13
